Time;durP1;ratioP1;P1;durP2;ratioP2;P2;SDS_P1;SDS_P2;PMS_P1;PMS_P2;Temp;Humidity;BMP_temperature;BMP_pressure;BME280_temperature;BME280_humidity;BME280_pressure;Samples;Min_cycle;Max_cycle;Signal;HPM_P1;HPM_P2
2023/12/29 00:01:43;;;;;;;2.00;1.90;;;;;;;;;;5037222;28;20543;-69
2023/12/29 00:04:10;;;;;;;1.95;1.85;;;;;;;;;;5041803;28;20453;-69
2023/12/29 00:06:38;;;;;;;1.80;1.70;;;;;;;;;;5048582;28;20421;-69
2023/12/29 00:09:20;;;;;;;1.90;1.80;;;;;;;;;;5045279;28;20444;-69
2023/12/29 00:11:50;;;;;;;2.05;1.85;;;;;;;;;;5047886;28;20421;-70
2023/12/29 00:14:18;;;;;;;1.77;1.63;;;;;;;;;;5049249;28;20895;-70
2023/12/29 00:16:45;;;;;;;1.60;1.50;;;;;;;;;;5034677;28;20522;-69
2023/12/29 00:19:13;;;;;;;2.65;1.60;;;;;;;;;;5036497;28;20426;-70
2023/12/29 00:21:40;;;;;;;1.88;1.77;;;;;;;;;;5040759;28;20435;-70
2023/12/29 00:24:08;;;;;;;1.80;1.38;;;;;;;;;;5034665;28;20485;-70
2023/12/29 00:26:35;;;;;;;1.40;1.40;;;;;;;;;;5041236;28;20907;-70
2023/12/29 00:29:03;;;;;;;2.92;1.85;;;;;;;;;;5047773;28;20456;-70
2023/12/29 00:31:32;;;;;;;1.75;1.65;;;;;;;;;;5039735;28;20919;-70
2023/12/29 00:33:59;;;;;;;1.80;1.70;;;;;;;;;;5040961;28;20520;-70
2023/12/29 00:36:27;;;;;;;1.35;1.35;;;;;;;;;;5041269;28;20523;-70
2023/12/29 00:38:54;;;;;;;1.80;1.70;;;;;;;;;;5047831;28;20421;-70
2023/12/29 00:41:21;;;;;;;1.35;1.30;;;;;;;;;;5034185;28;20432;-70
2023/12/29 00:43:48;;;;;;;1.60;1.50;;;;;;;;;;5037599;28;20433;-69
2023/12/29 00:46:15;;;;;;;1.48;1.38;;;;;;;;;;5034905;28;20537;-70
2023/12/29 00:48:44;;;;;;;1.60;1.50;;;;;;;;;;5040714;28;20423;-70
2023/12/29 00:51:11;;;;;;;1.40;1.38;;;;;;;;;;5036546;28;20425;-70
2023/12/29 00:53:38;;;;;;;1.55;1.45;;;;;;;;;;5038548;28;20805;-69
2023/12/29 00:56:12;;;;;;;1.77;1.67;;;;;;;;;;5038164;28;20834;-70
2023/12/29 00:58:42;;;;;;;1.85;1.60;;;;;;;;;;5041093;28;20587;-70
2023/12/29 01:01:11;;;;;;;1.85;1.30;;;;;;;;;;5044598;28;20520;-70
2023/12/29 01:03:40;;;;;;;1.60;1.60;;;;;;;;;;5044235;28;20425;-70
2023/12/29 01:06:08;;;;;;;1.98;1.50;;;;;;;;;;5033910;28;20440;-70
2023/12/29 01:08:35;;;;;;;1.90;1.53;;;;;;;;;;5035769;28;21155;-70
2023/12/29 01:11:02;;;;;;;1.90;1.80;;;;;;;;;;5038542;28;20425;-70
2023/12/29 01:13:29;;;;;;;1.80;1.67;;;;;;;;;;5038687;28;20474;-70
2023/12/29 01:15:57;;;;;;;1.70;1.60;;;;;;;;;;5040867;28;20452;-70
2023/12/29 01:18:24;;;;;;;1.45;1.40;;;;;;;;;;5033557;28;20430;-70
2023/12/29 01:20:54;;;;;;;1.88;1.55;;;;;;;;;;5042437;28;20457;-70
2023/12/29 01:23:24;;;;;;;2.63;1.70;;;;;;;;;;5036574;28;20519;-70
2023/12/29 01:25:51;;;;;;;1.70;1.50;;;;;;;;;;5035882;28;20839;-70
2023/12/29 01:28:18;;;;;;;1.58;1.48;;;;;;;;;;5036594;28;20522;-69
2023/12/29 01:30:48;;;;;;;1.70;1.42;;;;;;;;;;5030842;28;20514;-70
2023/12/29 01:33:16;;;;;;;1.70;1.60;;;;;;;;;;5034972;28;20807;-70
2023/12/29 01:35:43;;;;;;;1.87;1.77;;;;;;;;;;5038548;28;20425;-69
2023/12/29 01:38:11;;;;;;;1.77;1.60;;;;;;;;;;5037460;28;20431;-69
2023/12/29 01:40:45;;;;;;;2.38;1.48;;;;;;;;;;5044282;28;20795;-69
2023/12/29 01:43:12;;;;;;;1.45;1.35;;;;;;;;;;5041920;28;20429;-70
2023/12/29 01:45:39;;;;;;;1.90;1.60;;;;;;;;;;5041768;28;20429;-69
2023/12/29 01:48:22;;;;;;;1.42;1.33;;;;;;;;;;5033475;28;20528;-70
2023/12/29 01:50:50;;;;;;;1.40;1.30;;;;;;;;;;5035931;28;20438;-70
2023/12/29 01:53:17;;;;;;;1.70;1.40;;;;;;;;;;5032090;28;20465;-70
2023/12/29 01:55:46;;;;;;;1.50;1.40;;;;;;;;;;5030773;28;20421;-70
2023/12/29 01:58:14;;;;;;;2.30;1.40;;;;;;;;;;5038370;28;20433;-70
2023/12/29 02:00:42;;;;;;;1.45;1.33;;;;;;;;;;5037050;28;20426;-70
2023/12/29 02:03:09;;;;;;;2.33;1.30;;;;;;;;;;5031366;28;20435;-70
2023/12/29 02:05:36;;;;;;;3.97;1.40;;;;;;;;;;5028244;28;20465;-70
2023/12/29 02:08:06;;;;;;;2.80;1.50;;;;;;;;;;5028310;28;20431;-70
2023/12/29 02:10:36;;;;;;;2.00;1.50;;;;;;;;;;5036590;28;20817;-70
2023/12/29 02:13:05;;;;;;;1.98;1.33;;;;;;;;;;5028358;28;20431;-69
2023/12/29 02:15:33;;;;;;;1.15;1.05;;;;;;;;;;5034724;28;20473;-70
2023/12/29 02:18:06;;;;;;;1.50;1.27;;;;;;;;;;5032459;28;20429;-70
2023/12/29 02:20:34;;;;;;;1.50;1.40;;;;;;;;;;5037406;28;20434;-69
2023/12/29 02:23:01;;;;;;;1.55;1.10;;;;;;;;;;5029664;28;20979;-70
2023/12/29 02:25:28;;;;;;;1.42;1.20;;;;;;;;;;5041154;28;20486;-70
2023/12/29 02:28:02;;;;;;;3.97;1.02;;;;;;;;;;5045610;28;20455;-70
2023/12/29 02:30:37;;;;;;;1.55;1.38;;;;;;;;;;5032071;28;20542;-70
2023/12/29 02:33:09;;;;;;;1.90;1.40;;;;;;;;;;5037366;28;20528;-70
2023/12/29 02:35:40;;;;;;;1.40;1.30;;;;;;;;;;5030294;28;20504;-70
2023/12/29 02:38:07;;;;;;;1.38;1.27;;;;;;;;;;5037781;28;20435;-69
2023/12/29 02:40:34;;;;;;;2.15;1.25;;;;;;;;;;5029022;28;20431;-70
2023/12/29 02:43:04;;;;;;;1.70;1.35;;;;;;;;;;5036363;28;20429;-70
2023/12/29 02:45:31;;;;;;;1.60;1.40;;;;;;;;;;5045329;28;20435;-70
2023/12/29 02:47:58;;;;;;;2.30;1.70;;;;;;;;;;5037377;28;20434;-69
2023/12/29 02:50:27;;;;;;;1.65;1.55;;;;;;;;;;5045023;28;20440;-70
2023/12/29 02:52:55;;;;;;;1.50;1.10;;;;;;;;;;5040564;28;20533;-70
2023/12/29 02:55:22;;;;;;;1.77;1.50;;;;;;;;;;5041298;28;20483;-70
2023/12/29 02:57:50;;;;;;;2.00;1.30;;;;;;;;;;5031061;28;20798;-70
2023/12/29 03:00:17;;;;;;;1.15;1.02;;;;;;;;;;5041515;28;20425;-70
2023/12/29 03:02:45;;;;;;;1.35;1.25;;;;;;;;;;5036688;28;20431;-70
2023/12/29 03:05:12;;;;;;;1.35;1.25;;;;;;;;;;5036071;28;20463;-69
2023/12/29 03:07:40;;;;;;;2.03;1.40;;;;;;;;;;5028497;28;20434;-70
2023/12/29 03:10:11;;;;;;;1.80;1.40;;;;;;;;;;5038303;28;21012;-69
2023/12/29 03:12:41;;;;;;;3.78;1.58;;;;;;;;;;5044571;28;20992;-70
2023/12/29 03:15:08;;;;;;;1.40;1.30;;;;;;;;;;5031287;28;20434;-70
2023/12/29 03:17:35;;;;;;;2.10;1.48;;;;;;;;;;5038508;28;20440;-70
2023/12/29 03:20:06;;;;;;;1.50;1.40;;;;;;;;;;5035848;28;20538;-70
2023/12/29 03:22:33;;;;;;;1.80;1.15;;;;;;;;;;5036325;28;20424;-71
2023/12/29 03:25:01;;;;;;;1.40;1.30;;;;;;;;;;5034719;28;20431;-71
2023/12/29 03:27:30;;;;;;;1.52;1.25;;;;;;;;;;5043315;28;20495;-71
2023/12/29 03:29:57;;;;;;;4.20;1.27;;;;;;;;;;5042116;28;20451;-71
2023/12/29 03:32:25;;;;;;;1.42;1.33;;;;;;;;;;5044795;28;20456;-73
2023/12/29 03:34:55;;;;;;;1.42;1.30;;;;;;;;;;5034666;28;20445;-71
2023/12/29 03:37:22;;;;;;;2.72;1.55;;;;;;;;;;5045002;28;21127;-71
2023/12/29 03:39:50;;;;;;;1.98;1.50;;;;;;;;;;5046115;28;20503;-71
2023/12/29 03:42:17;;;;;;;1.67;1.58;;;;;;;;;;5040690;28;20917;-71
2023/12/29 03:44:44;;;;;;;3.15;1.60;;;;;;;;;;5038470;28;20435;-72
2023/12/29 03:47:12;;;;;;;2.35;1.75;;;;;;;;;;5040598;28;20510;-72
2023/12/29 03:49:40;;;;;;;1.45;1.30;;;;;;;;;;5033374;28;20461;-72
2023/12/29 03:52:07;;;;;;;2.20;1.50;;;;;;;;;;5036430;28;20734;-72
2023/12/29 03:54:34;;;;;;;2.90;1.20;;;;;;;;;;5047895;28;20425;-71
2023/12/29 03:57:02;;;;;;;1.42;1.30;;;;;;;;;;5044098;28;20441;-72
2023/12/29 03:59:29;;;;;;;1.55;1.20;;;;;;;;;;5043238;28;20472;-72
2023/12/29 04:01:56;;;;;;;2.28;1.25;;;;;;;;;;5034897;28;20512;-72
2023/12/29 04:04:25;;;;;;;2.15;1.25;;;;;;;;;;5034237;28;20434;-72
2023/12/29 04:06:56;;;;;;;2.00;1.20;;;;;;;;;;5035959;28;20443;-72
2023/12/29 04:09:25;;;;;;;2.28;1.45;;;;;;;;;;5046286;28;20428;-72
2023/12/29 04:11:53;;;;;;;1.38;1.10;;;;;;;;;;5034178;28;20435;-71
2023/12/29 04:14:20;;;;;;;2.92;1.30;;;;;;;;;;5039083;28;20457;-71
2023/12/29 04:16:47;;;;;;;4.63;1.38;;;;;;;;;;5034216;28;20450;-71
2023/12/29 04:19:14;;;;;;;1.73;1.58;;;;;;;;;;5042397;28;20530;-72
2023/12/29 04:21:42;;;;;;;1.90;1.05;;;;;;;;;;5040467;28;20496;-72
2023/12/29 04:24:10;;;;;;;1.48;1.20;;;;;;;;;;5040295;28;20916;-72
2023/12/29 04:26:37;;;;;;;1.13;1.10;;;;;;;;;;5037678;28;20442;-72
2023/12/29 04:29:07;;;;;;;2.70;1.00;;;;;;;;;;5030272;28;20431;-72
2023/12/29 04:31:34;;;;;;;1.90;1.20;;;;;;;;;;5032882;28;20528;-72
2023/12/29 04:34:01;;;;;;;2.85;1.23;;;;;;;;;;5033981;28;20906;-72
2023/12/29 04:36:28;;;;;;;1.48;1.08;;;;;;;;;;5030249;28;20439;-72
2023/12/29 04:38:56;;;;;;;2.22;1.35;;;;;;;;;;5029625;28;20434;-72
2023/12/29 04:41:23;;;;;;;1.40;1.30;;;;;;;;;;5036613;28;20510;-72
2023/12/29 04:44:00;;;;;;;1.73;1.35;;;;;;;;;;5039098;28;20435;-72
2023/12/29 04:46:30;;;;;;;2.92;1.20;;;;;;;;;;5028420;28;20956;-72
2023/12/29 04:48:57;;;;;;;1.00;1.00;;;;;;;;;;5032953;28;20438;-71
2023/12/29 04:51:25;;;;;;;1.60;1.05;;;;;;;;;;5032609;28;20508;-71
2023/12/29 04:53:52;;;;;;;1.10;1.00;;;;;;;;;;5030468;28;20492;-72
2023/12/29 04:56:19;;;;;;;1.95;1.10;;;;;;;;;;5035707;28;20435;-72
2023/12/29 04:58:48;;;;;;;1.70;1.23;;;;;;;;;;5027664;28;20481;-72
2023/12/29 05:01:16;;;;;;;1.23;1.13;;;;;;;;;;5034182;28;20437;-72
2023/12/29 05:03:46;;;;;;;1.38;1.20;;;;;;;;;;5034132;28;20511;-72
2023/12/29 05:06:13;;;;;;;1.40;1.30;;;;;;;;;;5044628;28;20427;-72
2023/12/29 05:08:40;;;;;;;1.92;1.20;;;;;;;;;;5029370;28;20471;-72
2023/12/29 05:11:08;;;;;;;1.67;1.40;;;;;;;;;;5037102;28;20518;-72
2023/12/29 05:13:38;;;;;;;1.58;1.20;;;;;;;;;;5038574;28;20998;-72
2023/12/29 05:16:06;;;;;;;1.30;1.20;;;;;;;;;;5037938;28;20434;-72
2023/12/29 05:18:33;;;;;;;2.65;1.33;;;;;;;;;;5036203;28;20841;-72
2023/12/29 05:21:01;;;;;;;1.55;1.23;;;;;;;;;;5034011;28;20423;-71
2023/12/29 05:23:31;;;;;;;2.80;1.30;;;;;;;;;;5036167;28;20873;-71
2023/12/29 05:25:59;;;;;;;1.15;1.10;;;;;;;;;;5040432;28;20429;-71
2023/12/29 05:28:27;;;;;;;1.40;1.10;;;;;;;;;;5034550;28;20518;-72
2023/12/29 05:30:59;;;;;;;6.03;1.20;;;;;;;;;;5031588;28;20463;-71
2023/12/29 05:33:26;;;;;;;1.77;1.13;;;;;;;;;;5037103;28;20443;-71
2023/12/29 05:35:53;;;;;;;1.60;1.20;;;;;;;;;;5038267;28;20437;-71
2023/12/29 05:38:20;;;;;;;1.20;1.10;;;;;;;;;;5041818;28;20502;-71
2023/12/29 05:40:47;;;;;;;1.25;1.13;;;;;;;;;;5039693;28;20432;-71
2023/12/29 05:43:18;;;;;;;3.77;1.10;;;;;;;;;;5033263;28;20437;-71
2023/12/29 05:45:45;;;;;;;1.20;1.08;;;;;;;;;;5029362;28;20518;-71
2023/12/29 05:48:13;;;;;;;1.70;1.40;;;;;;;;;;5040032;28;20441;-71
2023/12/29 05:50:41;;;;;;;2.75;1.35;;;;;;;;;;5035435;28;20482;-72
2023/12/29 05:53:08;;;;;;;1.83;1.40;;;;;;;;;;5029931;28;20441;-71
2023/12/29 05:55:36;;;;;;;1.90;1.30;;;;;;;;;;5039635;28;20438;-72
2023/12/29 05:58:03;;;;;;;2.00;1.17;;;;;;;;;;5039588;28;20545;-71
2023/12/29 06:00:33;;;;;;;1.13;1.10;;;;;;;;;;5038031;28;20463;-71
2023/12/29 06:03:01;;;;;;;0.93;0.90;;;;;;;;;;5037618;28;20500;-71
2023/12/29 06:05:28;;;;;;;1.87;1.13;;;;;;;;;;5042166;28;20422;-70
2023/12/29 06:07:55;;;;;;;1.20;1.10;;;;;;;;;;5043955;28;21220;-70
2023/12/29 06:10:23;;;;;;;1.80;1.33;;;;;;;;;;5044770;28;20437;-70
2023/12/29 06:12:50;;;;;;;1.83;1.27;;;;;;;;;;5040737;28;20460;-70
2023/12/29 06:15:18;;;;;;;1.55;1.30;;;;;;;;;;5040451;28;20970;-70
2023/12/29 06:17:47;;;;;;;2.63;1.40;;;;;;;;;;5037407;28;20443;-70
2023/12/29 06:20:14;;;;;;;1.50;1.40;;;;;;;;;;5042689;28;20428;-70
2023/12/29 06:22:42;;;;;;;1.65;1.25;;;;;;;;;;5049900;28;20434;-70
2023/12/29 06:25:10;;;;;;;2.80;1.50;;;;;;;;;;5040940;28;20462;-70
2023/12/29 06:27:38;;;;;;;1.05;0.98;;;;;;;;;;5037682;28;20571;-70
2023/12/29 06:30:06;;;;;;;1.53;1.20;;;;;;;;;;5043243;28;20433;-70
2023/12/29 06:32:34;;;;;;;2.22;1.70;;;;;;;;;;5041200;28;20485;-70
2023/12/29 06:35:02;;;;;;;1.63;1.52;;;;;;;;;;5035175;28;20435;-70
2023/12/29 06:37:30;;;;;;;1.50;1.40;;;;;;;;;;5034666;28;20430;-70
2023/12/29 06:39:57;;;;;;;1.15;1.15;;;;;;;;;;5043338;28;20457;-70
2023/12/29 06:42:24;;;;;;;2.20;1.30;;;;;;;;;;5048077;28;20464;-70
2023/12/29 06:44:51;;;;;;;1.40;1.30;;;;;;;;;;5033942;28;20431;-70
2023/12/29 06:47:19;;;;;;;1.90;1.30;;;;;;;;;;5036477;28;20437;-70
2023/12/29 06:49:46;;;;;;;1.67;1.10;;;;;;;;;;5038486;28;20522;-70
2023/12/29 06:52:17;;;;;;;1.80;1.40;;;;;;;;;;5039516;28;20607;-70
2023/12/29 06:54:49;;;;;;;1.33;1.23;;;;;;;;;;5043173;28;20433;-70
2023/12/29 06:57:17;;;;;;;1.90;1.30;;;;;;;;;;5042177;28;20897;-70
2023/12/29 06:59:44;;;;;;;1.33;1.23;;;;;;;;;;5034809;28;20457;-70
2023/12/29 07:02:11;;;;;;;1.95;1.30;;;;;;;;;;5041891;28;20434;-70
2023/12/29 07:04:41;;;;;;;1.30;1.20;;;;;;;;;;5047775;28;20504;-70
2023/12/29 07:07:11;;;;;;;1.30;1.20;;;;;;;;;;5034625;28;20443;-70
2023/12/29 07:09:40;;;;;;;1.67;1.05;;;;;;;;;;5044859;28;20428;-70
2023/12/29 07:12:07;;;;;;;1.40;1.20;;;;;;;;;;5044577;28;20431;-71
2023/12/29 07:14:35;;;;;;;2.03;1.40;;;;;;;;;;5037507;28;20470;-70
2023/12/29 07:17:06;;;;;;;1.45;1.35;;;;;;;;;;5040916;28;20512;-71
2023/12/29 07:19:39;;;;;;;1.73;1.42;;;;;;;;;;5043136;28;20442;-70
2023/12/29 07:22:07;;;;;;;2.15;1.33;;;;;;;;;;5049148;28;20433;-70
2023/12/29 07:24:35;;;;;;;1.58;1.25;;;;;;;;;;5038380;28;20439;-70
2023/12/29 07:27:04;;;;;;;1.05;1.02;;;;;;;;;;5046745;28;20425;-70
2023/12/29 07:29:32;;;;;;;2.25;1.00;;;;;;;;;;5044963;28;20429;-70
2023/12/29 07:31:59;;;;;;;2.40;1.20;;;;;;;;;;5044898;28;20803;-70
2023/12/29 07:34:27;;;;;;;2.03;1.30;;;;;;;;;;5046357;28;20842;-70
2023/12/29 07:37:01;;;;;;;1.63;1.02;;;;;;;;;;5043444;28;20435;-70
2023/12/29 07:39:30;;;;;;;3.08;0.90;;;;;;;;;;5044909;28;20512;-70
2023/12/29 07:41:57;;;;;;;2.95;0.90;;;;;;;;;;5044061;28;20889;-71
2023/12/29 07:44:25;;;;;;;1.10;1.10;;;;;;;;;;5047633;28;20425;-70
2023/12/29 07:46:57;;;;;;;4.35;1.38;;;;;;;;;;5047587;28;20433;-70
2023/12/29 07:49:24;;;;;;;1.30;1.20;;;;;;;;;;5048170;28;20507;-70
2023/12/29 07:51:55;;;;;;;2.80;1.00;;;;;;;;;;5039237;28;20426;-70
2023/12/29 07:54:22;;;;;;;2.30;1.07;;;;;;;;;;5036014;28;20431;-70
2023/12/29 07:56:50;;;;;;;1.35;0.95;;;;;;;;;;5041201;28;20429;-70
2023/12/29 07:59:18;;;;;;;1.25;1.10;;;;;;;;;;5048888;28;20437;-70
2023/12/29 08:01:45;;;;;;;1.42;1.10;;;;;;;;;;5048816;28;20795;-70
2023/12/29 08:04:12;;;;;;;1.15;1.00;;;;;;;;;;5038021;28;20494;-70
2023/12/29 08:06:42;;;;;;;1.50;0.95;;;;;;;;;;5039207;28;20773;-70
2023/12/29 08:09:10;;;;;;;1.20;1.10;;;;;;;;;;5032370;28;20426;-70
2023/12/29 08:11:37;;;;;;;1.92;1.13;;;;;;;;;;5041209;28;20440;-71
2023/12/29 08:14:08;;;;;;;2.15;1.20;;;;;;;;;;5038922;28;20429;-70
2023/12/29 08:16:41;;;;;;;1.20;1.00;;;;;;;;;;5033264;28;20552;-70
2023/12/29 08:19:10;;;;;;;4.65;1.02;;;;;;;;;;5038920;28;21204;-70
2023/12/29 08:21:37;;;;;;;1.35;1.10;;;;;;;;;;5035596;28;20919;-70
2023/12/29 08:24:05;;;;;;;1.40;1.13;;;;;;;;;;5030744;28;20441;-70
2023/12/29 08:26:32;;;;;;;1.10;0.95;;;;;;;;;;5041551;28;20739;-70
2023/12/29 08:28:59;;;;;;;1.73;0.97;;;;;;;;;;5037172;28;20429;-70
2023/12/29 08:31:28;;;;;;;0.98;0.98;;;;;;;;;;5029823;28;20438;-70
2023/12/29 08:33:56;;;;;;;2.22;1.00;;;;;;;;;;5037363;28;20430;-70
2023/12/29 08:36:23;;;;;;;1.50;1.02;;;;;;;;;;5041319;28;20473;-77
2023/12/29 08:38:52;;;;;;;1.93;1.07;;;;;;;;;;5044840;28;20510;-73
2023/12/29 08:41:20;;;;;;;0.70;0.70;;;;;;;;;;5033731;28;20515;-69
2023/12/29 08:43:47;;;;;;;2.15;0.93;;;;;;;;;;5040337;28;20457;-69
2023/12/29 08:46:14;;;;;;;1.63;1.10;;;;;;;;;;5048610;28;20504;-69
2023/12/29 08:48:41;;;;;;;2.13;1.02;;;;;;;;;;5041512;28;20918;-67
2023/12/29 08:51:08;;;;;;;1.27;0.90;;;;;;;;;;5034564;28;21114;-68
2023/12/29 08:53:36;;;;;;;1.67;0.93;;;;;;;;;;5034303;28;20506;-68
2023/12/29 08:56:03;;;;;;;2.40;0.98;;;;;;;;;;5028818;28;20518;-68
2023/12/29 08:58:30;;;;;;;1.00;1.00;;;;;;;;;;5032034;28;20789;-67
2023/12/29 09:00:58;;;;;;;1.05;0.98;;;;;;;;;;5032317;28;20853;-68
2023/12/29 09:03:26;;;;;;;1.50;0.90;;;;;;;;;;5037836;28;20946;-68
2023/12/29 09:05:54;;;;;;;0.98;0.95;;;;;;;;;;5042293;28;20489;-68
2023/12/29 09:08:21;;;;;;;2.20;0.93;;;;;;;;;;5034475;28;20433;-69
2023/12/29 09:10:48;;;;;;;1.52;1.02;;;;;;;;;;5033790;28;20421;-70
2023/12/29 09:13:15;;;;;;;1.75;0.80;;;;;;;;;;5034808;28;20438;-68
2023/12/29 09:15:46;;;;;;;2.00;0.80;;;;;;;;;;5031628;28;20497;-69
2023/12/29 09:18:18;;;;;;;0.80;0.70;;;;;;;;;;5029371;28;20452;-69
2023/12/29 09:20:50;;;;;;;1.80;1.07;;;;;;;;;;5041913;28;20437;-69
2023/12/29 09:23:20;;;;;;;1.48;0.68;;;;;;;;;;5035015;28;20509;-69
2023/12/29 09:25:47;;;;;;;2.63;1.03;;;;;;;;;;5042812;28;20436;-69
2023/12/29 09:28:17;;;;;;;1.50;0.98;;;;;;;;;;5029059;28;20450;-69
2023/12/29 09:30:44;;;;;;;3.25;0.93;;;;;;;;;;5035684;28;20998;-69
2023/12/29 09:33:12;;;;;;;1.42;0.93;;;;;;;;;;5037556;28;20461;-70
2023/12/29 09:35:43;;;;;;;2.13;1.00;;;;;;;;;;5032700;28;20508;-70
2023/12/29 09:38:10;;;;;;;1.42;0.93;;;;;;;;;;5037060;28;20458;-69
2023/12/29 09:40:37;;;;;;;1.05;0.95;;;;;;;;;;5041969;28;20532;-69
2023/12/29 09:43:05;;;;;;;0.80;0.80;;;;;;;;;;5031586;28;21061;-69
2023/12/29 09:45:34;;;;;;;1.42;0.90;;;;;;;;;;5033925;28;20431;-69
2023/12/29 09:48:05;;;;;;;2.30;1.10;;;;;;;;;;5028495;28;20530;-70
2023/12/29 09:50:33;;;;;;;2.28;0.88;;;;;;;;;;5033355;28;20451;-69
2023/12/29 09:53:00;;;;;;;2.30;1.00;;;;;;;;;;5032450;28;20522;-69
2023/12/29 09:55:31;;;;;;;1.90;0.85;;;;;;;;;;5038230;28;20519;-69
2023/12/29 09:57:59;;;;;;;3.03;0.90;;;;;;;;;;5038677;28;20433;-69
2023/12/29 10:00:27;;;;;;;3.60;1.00;;;;;;;;;;5037129;28;20441;-70
2023/12/29 10:02:54;;;;;;;1.58;1.08;;;;;;;;;;5035903;28;20479;-69
2023/12/29 10:05:22;;;;;;;1.00;0.80;;;;;;;;;;5028131;28;20434;-69
2023/12/29 10:07:52;;;;;;;1.60;0.70;;;;;;;;;;5028053;28;20516;-69
2023/12/29 10:10:23;;;;;;;2.80;1.20;;;;;;;;;;5037336;28;20487;-69
2023/12/29 10:12:51;;;;;;;1.17;0.80;;;;;;;;;;5029751;28;20436;-69
2023/12/29 10:15:29;;;;;;;2.08;1.20;;;;;;;;;;5035331;28;21223;-69
2023/12/29 10:18:02;;;;;;;2.20;0.90;;;;;;;;;;5030019;28;20991;-69
2023/12/29 10:20:33;;;;;;;1.40;0.90;;;;;;;;;;5026964;28;20946;-69
2023/12/29 10:23:09;;;;;;;0.85;0.85;;;;;;;;;;5032352;28;20799;-69
2023/12/29 10:25:38;;;;;;;1.38;0.80;;;;;;;;;;5029988;28;20457;-69
2023/12/29 10:28:09;;;;;;;1.65;1.00;;;;;;;;;;5031555;28;20462;-69
2023/12/29 10:30:40;;;;;;;1.15;0.70;;;;;;;;;;5041937;28;20429;-69
2023/12/29 10:33:08;;;;;;;1.50;0.80;;;;;;;;;;5030515;28;20435;-69
2023/12/29 10:35:38;;;;;;;2.63;1.00;;;;;;;;;;5043655;28;20438;-69
2023/12/29 10:38:10;;;;;;;0.88;0.80;;;;;;;;;;5040494;28;20518;-69
2023/12/29 10:40:37;;;;;;;1.80;0.80;;;;;;;;;;5045461;28;20430;-69
2023/12/29 10:43:07;;;;;;;1.38;0.90;;;;;;;;;;5032401;28;20433;-69
2023/12/29 10:45:36;;;;;;;0.98;0.88;;;;;;;;;;5048757;28;20429;-68
2023/12/29 10:48:04;;;;;;;0.98;0.88;;;;;;;;;;5041208;28;20540;-69
2023/12/29 10:50:42;;;;;;;1.05;0.73;;;;;;;;;;5034476;28;20430;-69
2023/12/29 10:53:13;;;;;;;1.77;0.75;;;;;;;;;;5035648;28;20517;-68
2023/12/29 10:55:41;;;;;;;1.52;1.10;;;;;;;;;;5032758;28;20434;-68
2023/12/29 10:58:08;;;;;;;1.25;0.70;;;;;;;;;;5045145;28;21160;-69
2023/12/29 11:00:36;;;;;;;2.38;0.80;;;;;;;;;;5036663;28;20489;-68
2023/12/29 11:03:07;;;;;;;1.92;0.75;;;;;;;;;;5041867;28;20479;-68
2023/12/29 11:05:34;;;;;;;0.87;0.80;;;;;;;;;;5042970;28;20465;-69
2023/12/29 11:08:01;;;;;;;0.80;0.80;;;;;;;;;;5044054;28;20433;-70
2023/12/29 11:10:31;;;;;;;1.20;0.90;;;;;;;;;;5044802;28;20841;-69
2023/12/29 11:13:02;;;;;;;0.80;0.60;;;;;;;;;;5042480;28;20480;-68
2023/12/29 11:15:30;;;;;;;3.13;0.70;;;;;;;;;;5037865;28;20515;-69
2023/12/29 11:17:57;;;;;;;1.17;0.80;;;;;;;;;;5049719;28;20433;-69
2023/12/29 11:20:26;;;;;;;2.50;0.90;;;;;;;;;;5039090;28;20518;-69
2023/12/29 11:22:57;;;;;;;0.80;0.70;;;;;;;;;;5039947;28;20433;-69
2023/12/29 11:25:24;;;;;;;0.73;0.73;;;;;;;;;;5038276;28;20823;-69
2023/12/29 11:27:52;;;;;;;1.90;1.10;;;;;;;;;;5045575;28;20429;-69
2023/12/29 11:30:20;;;;;;;4.90;0.90;;;;;;;;;;5030865;28;20429;-69
2023/12/29 11:32:50;;;;;;;1.38;1.00;;;;;;;;;;5046882;28;20441;-69
2023/12/29 11:35:28;;;;;;;0.82;0.75;;;;;;;;;;5043072;28;20447;-69
2023/12/29 11:38:06;;;;;;;1.08;0.70;;;;;;;;;;5039071;28;20541;-69
2023/12/29 11:40:57;;;;;;;2.50;0.93;;;;;;;;;;5033524;28;20957;-69
2023/12/29 11:43:24;;;;;;;1.83;0.80;;;;;;;;;;5023572;28;20945;-69
2023/12/29 11:45:52;;;;;;;1.45;1.00;;;;;;;;;;5048434;28;20429;-69
2023/12/29 11:48:38;;;;;;;0.93;0.90;;;;;;;;;;5045251;28;20497;-69
2023/12/29 11:51:25;;;;;;;1.50;0.80;;;;;;;;;;5033640;28;20507;-69
2023/12/29 11:53:52;;;;;;;1.40;0.80;;;;;;;;;;5040606;28;20927;-69
2023/12/29 11:56:19;;;;;;;1.77;0.90;;;;;;;;;;5037742;28;20532;-69
2023/12/29 11:58:46;;;;;;;2.00;0.87;;;;;;;;;;5036598;28;20510;-69
2023/12/29 12:01:15;;;;;;;2.07;0.90;;;;;;;;;;5030507;28;20520;-69
2023/12/29 12:03:42;;;;;;;1.20;0.80;;;;;;;;;;5036492;28;20442;-68
2023/12/29 12:06:09;;;;;;;2.40;1.00;;;;;;;;;;5035016;28;20436;-69
2023/12/29 12:08:39;;;;;;;1.30;0.80;;;;;;;;;;5035032;28;20438;-69
2023/12/29 12:11:25;;;;;;;1.00;0.68;;;;;;;;;;5036457;28;20439;-64
2023/12/29 12:13:53;;;;;;;1.63;0.85;;;;;;;;;;5039543;28;20510;-70
2023/12/29 12:16:41;;;;;;;0.93;0.90;;;;;;;;;;5027239;28;20917;-67
2023/12/29 12:19:10;;;;;;;0.80;0.80;;;;;;;;;;5030301;28;20437;-67
2023/12/29 12:21:38;;;;;;;1.48;0.98;;;;;;;;;;5034559;28;20925;-68
2023/12/29 12:24:05;;;;;;;0.90;0.77;;;;;;;;;;5037464;28;20470;-68
2023/12/29 12:26:33;;;;;;;0.70;0.55;;;;;;;;;;5041944;28;20941;-69
2023/12/29 12:29:00;;;;;;;1.70;0.73;;;;;;;;;;5046007;28;20461;-69
2023/12/29 12:31:30;;;;;;;1.80;0.75;;;;;;;;;;5027665;28;20440;-68
2023/12/29 12:33:57;;;;;;;2.17;0.80;;;;;;;;;;5039566;28;20435;-69
2023/12/29 12:36:26;;;;;;;0.70;0.70;;;;;;;;;;5033574;28;20439;-68
2023/12/29 12:38:54;;;;;;;1.38;0.70;;;;;;;;;;5036488;28;20538;-68
2023/12/29 12:41:26;;;;;;;1.50;0.80;;;;;;;;;;5031307;28;20825;-68
2023/12/29 12:44:02;;;;;;;1.77;0.70;;;;;;;;;;5036655;28;20422;-68
2023/12/29 12:46:33;;;;;;;3.55;0.80;;;;;;;;;;5034469;28;20579;-68
2023/12/29 12:49:01;;;;;;;0.90;0.68;;;;;;;;;;5035987;28;20425;-68
2023/12/29 12:51:28;;;;;;;2.50;0.70;;;;;;;;;;5032760;28;20839;-68
2023/12/29 12:53:55;;;;;;;2.80;0.70;;;;;;;;;;5037989;28;20518;-69
2023/12/29 12:56:27;;;;;;;1.40;0.60;;;;;;;;;;5032414;28;20433;-68
2023/12/29 12:58:57;;;;;;;1.20;0.73;;;;;;;;;;5035451;28;20432;-69
2023/12/29 13:01:26;;;;;;;1.17;0.90;;;;;;;;;;5037759;28;20435;-68
2023/12/29 13:03:54;;;;;;;1.20;0.60;;;;;;;;;;5031360;28;20427;-68
2023/12/29 13:06:22;;;;;;;1.15;0.70;;;;;;;;;;5041381;28;20501;-68
2023/12/29 13:08:51;;;;;;;1.80;0.50;;;;;;;;;;5042240;28;20438;-68
2023/12/29 13:11:25;;;;;;;1.23;0.80;;;;;;;;;;5034781;28;20444;-68
2023/12/29 13:13:56;;;;;;;0.70;0.50;;;;;;;;;;5026852;28;20544;-68
2023/12/29 13:16:34;;;;;;;2.25;0.75;;;;;;;;;;5037516;28;20990;-68
2023/12/29 13:19:18;;;;;;;1.67;0.50;;;;;;;;;;5035896;28;20468;-69
2023/12/29 13:21:47;;;;;;;0.80;0.60;;;;;;;;;;5037220;28;20431;-68
2023/12/29 13:24:17;;;;;;;1.58;0.60;;;;;;;;;;5041488;28;20422;-67
2023/12/29 13:26:47;;;;;;;1.60;0.60;;;;;;;;;;5029503;28;20509;-69
2023/12/29 13:29:15;;;;;;;0.52;0.40;;;;;;;;;;5037355;28;20442;-67
2023/12/29 13:31:42;;;;;;;1.25;0.60;;;;;;;;;;5038300;28;20436;-69
2023/12/29 13:34:17;;;;;;;0.75;0.60;;;;;;;;;;5032691;28;20439;-67
2023/12/29 13:36:50;;;;;;;0.95;0.40;;;;;;;;;;5038363;28;20458;-67
2023/12/29 13:39:32;;;;;;;1.63;0.60;;;;;;;;;;5033086;28;20849;-68
2023/12/29 13:42:00;;;;;;;2.00;0.57;;;;;;;;;;5039355;28;20875;-68
2023/12/29 13:44:28;;;;;;;0.40;0.40;;;;;;;;;;5039203;28;20433;-69
2023/12/29 13:46:57;;;;;;;1.90;0.43;;;;;;;;;;5031369;28;20448;-69
2023/12/29 13:49:24;;;;;;;1.10;0.40;;;;;;;;;;5029928;28;20452;-69
2023/12/29 13:51:52;;;;;;;0.50;0.43;;;;;;;;;;5032962;28;20487;-69
2023/12/29 13:54:19;;;;;;;0.40;0.40;;;;;;;;;;5043665;28;20595;-69
2023/12/29 13:56:53;;;;;;;0.50;0.43;;;;;;;;;;5034364;28;20489;-69
2023/12/29 13:59:31;;;;;;;1.55;0.50;;;;;;;;;;5027657;28;20470;-69
2023/12/29 14:02:00;;;;;;;0.60;0.60;;;;;;;;;;5038647;28;20511;-69
2023/12/29 14:04:27;;;;;;;1.50;0.60;;;;;;;;;;5041572;28;20924;-69
2023/12/29 14:07:00;;;;;;;0.40;0.40;;;;;;;;;;5039663;28;20489;-68
2023/12/29 14:09:27;;;;;;;0.50;0.50;;;;;;;;;;5042128;28;20475;-68
2023/12/29 14:11:57;;;;;;;1.00;0.50;;;;;;;;;;5031669;28;20461;-68
2023/12/29 14:14:25;;;;;;;0.85;0.50;;;;;;;;;;5027885;28;20437;-68
2023/12/29 14:16:55;;;;;;;0.47;0.47;;;;;;;;;;5046552;28;20429;-68
2023/12/29 14:19:22;;;;;;;0.88;0.60;;;;;;;;;;5029587;28;20444;-69
2023/12/29 14:21:52;;;;;;;1.10;0.47;;;;;;;;;;5037464;28;20457;-69
2023/12/29 14:24:19;;;;;;;0.90;0.52;;;;;;;;;;5035705;28;20566;-69
2023/12/29 14:26:58;;;;;;;0.60;0.60;;;;;;;;;;5033850;28;20431;-69
2023/12/29 14:29:27;;;;;;;0.95;0.60;;;;;;;;;;5039189;28;20559;-69
2023/12/29 14:31:57;;;;;;;0.60;0.60;;;;;;;;;;5041133;28;21156;-69
2023/12/29 14:34:24;;;;;;;0.70;0.70;;;;;;;;;;5030472;28;20906;-69
2023/12/29 14:36:51;;;;;;;1.60;0.60;;;;;;;;;;5043377;28;20439;-69
2023/12/29 14:39:19;;;;;;;0.70;0.70;;;;;;;;;;5039602;28;20483;-69
2023/12/29 14:41:49;;;;;;;2.30;0.70;;;;;;;;;;5038352;28;20430;-69
2023/12/29 14:44:16;;;;;;;0.52;0.52;;;;;;;;;;5043173;28;20976;-69
2023/12/29 14:46:44;;;;;;;1.60;0.57;;;;;;;;;;5036687;28;20944;-69
2023/12/29 14:49:11;;;;;;;1.10;0.70;;;;;;;;;;5040379;28;20451;-69
2023/12/29 14:51:38;;;;;;;1.08;0.57;;;;;;;;;;5039956;28;20441;-69
2023/12/29 14:54:07;;;;;;;1.00;0.50;;;;;;;;;;5031205;28;20438;-69